createdAt,value
2024-01-16T00:00:26.088Z,99510.75
2024-01-16T00:01:32.659Z,99512.53
2024-01-16T00:02:42.505Z,99512.59
2024-01-16T00:03:51.723Z,99516.19
2024-01-16T00:04:58.350Z,99527.47
2024-01-16T00:06:05.889Z,99524.06
2024-01-16T00:07:12.507Z,99523.22
2024-01-16T00:08:18.849Z,99524.16
2024-01-16T00:09:25.415Z,99518.19
2024-01-16T00:10:31.819Z,99525.03
2024-01-16T00:11:38.403Z,99525.09
2024-01-16T00:12:43.079Z,99525.13
2024-01-16T00:13:50.096Z,99532.88
2024-01-16T00:14:54.057Z,99528.56
2024-01-16T00:16:00.622Z,99526.06
2024-01-16T00:17:05.262Z,99523.50
2024-01-16T00:18:09.665Z,99520.91
2024-01-16T00:19:22.144Z,99520.09
2024-01-16T00:20:27.049Z,99521.88
2024-01-16T00:21:33.540Z,99527.13
2024-01-16T00:22:39.827Z,99523.78
2024-01-16T00:23:46.411Z,99528.97
2024-01-16T00:24:52.629Z,99530.72
2024-01-16T00:25:59.145Z,99528.19
2024-01-16T00:27:08.992Z,99533.38
2024-01-16T00:28:17.127Z,99532.59
2024-01-16T00:29:23.402Z,99530.91
2024-01-16T00:30:30.835Z,99531.81
2024-01-16T00:31:34.716Z,99532.59
2024-01-16T00:32:43.913Z,99530.84
2024-01-16T00:33:48.036Z,99529.09
2024-01-16T00:34:57.215Z,99529.91
2024-01-16T00:36:03.918Z,99534.13
2024-01-16T00:37:10.476Z,99532.34
2024-01-16T00:38:14.383Z,99536.59
2024-01-16T00:39:20.878Z,99537.44
2024-01-16T00:40:24.775Z,99540.06
2024-01-16T00:41:31.394Z,99544.41
2024-01-16T00:42:35.367Z,99540.06
2024-01-16T00:43:44.311Z,99540.94
2024-01-16T00:44:48.226Z,99551.28
2024-01-16T00:45:54.861Z,99551.41
2024-01-16T00:46:58.950Z,99553.25
2024-01-16T00:48:12.036Z,99559.34
2024-01-16T00:49:17.649Z,99563.75
2024-01-16T00:50:28.902Z,99569.81
2024-01-16T00:51:32.824Z,99570.69
2024-01-16T00:52:41.588Z,99566.44
2024-01-16T00:53:45.825Z,99576.69
2024-01-16T00:54:49.776Z,99579.25
2024-01-16T00:55:56.275Z,99576.69
2024-01-16T00:57:02.498Z,99575.84
2024-01-16T00:58:08.939Z,99588.69
2024-01-16T00:59:13.396Z,99576.69
2024-01-16T01:00:20.530Z,99583.53
2024-01-16T01:01:26.742Z,99586.97
2024-01-16T01:02:33.358Z,99593.00
2024-01-16T01:03:37.234Z,99598.16
2024-01-16T01:04:44.481Z,99597.31
2024-01-16T01:05:51.307Z,99600.75
2024-01-16T01:06:57.876Z,99596.34
2024-01-16T01:08:01.881Z,99598.06
2024-01-16T01:09:08.398Z,99600.63
2024-01-16T01:10:12.329Z,99600.63
2024-01-16T01:11:16.296Z,99602.31
2024-01-16T01:12:24.260Z,99610.91
2024-01-16T01:13:31.189Z,99610.78
2024-01-16T01:14:37.795Z,99619.38
2024-01-16T01:15:41.925Z,99616.91
2024-01-16T01:16:48.539Z,99620.38
2024-01-16T01:17:55.777Z,99631.56
2024-01-16T01:19:02.573Z,99624.72
2024-01-16T01:20:09.842Z,99623.09
2024-01-16T01:21:19.018Z,99625.72
2024-01-16T01:22:23.166Z,99621.50
2024-01-16T01:23:29.728Z,99616.41
2024-01-16T01:24:33.690Z,99623.41
2024-01-16T01:25:43.993Z,99620.75
2024-01-16T01:26:50.128Z,99630.19
2024-01-16T01:27:58.904Z,99631.06
2024-01-16T01:29:03.578Z,99634.53
2024-01-16T01:30:10.366Z,99632.03
2024-01-16T01:31:17.297Z,99632.84
2024-01-16T01:32:21.596Z,99637.22
2024-01-16T01:33:28.282Z,99642.38
2024-01-16T01:34:32.361Z,99644.09
2024-01-16T01:35:38.870Z,99633.78
2024-01-16T01:36:47.888Z,99635.53
2024-01-16T01:37:56.743Z,99635.53
2024-01-16T01:39:04.359Z,99637.22
2024-01-16T01:40:13.968Z,99630.38
2024-01-16T01:41:18.499Z,99635.63
2024-01-16T01:42:25.113Z,99635.72
2024-01-16T01:43:32.026Z,99631.50
2024-01-16T01:44:38.616Z,99634.06
2024-01-16T01:45:44.937Z,99638.34
2024-01-16T01:46:53.696Z,99622.88
2024-01-16T01:47:58.078Z,99633.16
2024-01-16T01:49:05.451Z,99627.94
2024-01-16T01:50:14.723Z,99628.78
2024-01-16T01:51:21.862Z,99628.84
2024-01-16T01:52:34.696Z,99641.72
2024-01-16T01:53:40.104Z,99646.81
2024-01-16T01:54:50.280Z,99644.28
2024-01-16T01:55:56.108Z,99644.44
2024-01-16T01:57:03.200Z,99639.34
2024-01-16T01:58:07.985Z,99638.50
2024-01-16T01:59:19.376Z,99644.50
2024-01-16T02:00:25.872Z,99643.66
2024-01-16T02:01:35.910Z,99641.03
2024-01-16T02:02:41.748Z,99652.16
2024-01-16T02:03:50.374Z,99645.19
2024-01-16T02:04:54.502Z,99646.03
2024-01-16T02:06:01.425Z,99650.28
2024-01-16T02:07:06.371Z,99652.97
2024-01-16T02:08:15.525Z,99653.03
2024-01-16T02:09:19.423Z,99653.91
2024-01-16T02:10:25.937Z,99655.63
2024-01-16T02:11:30.080Z,99657.44
2024-01-16T02:12:36.857Z,99657.63
2024-01-16T02:13:41.257Z,99654.19
2024-01-16T02:14:50.748Z,99650.78
2024-01-16T02:15:54.691Z,99661.09
2024-01-16T02:17:01.252Z,99663.66
2024-01-16T02:18:07.459Z,99666.13
2024-01-16T02:19:14.192Z,99659.25
2024-01-16T02:20:18.179Z,99660.03
2024-01-16T02:21:27.129Z,99671.19
2024-01-16T02:22:37.263Z,99669.50
2024-01-16T02:23:46.425Z,99672.09
2024-01-16T02:24:53.460Z,99671.16
2024-01-16T02:25:57.685Z,99677.19
2024-01-16T02:27:07.068Z,99682.44
2024-01-16T02:28:11.013Z,99680.75
2024-01-16T02:29:17.618Z,99690.19
2024-01-16T02:30:23.986Z,99689.44
2024-01-16T02:31:30.620Z,99688.69
2024-01-16T02:32:34.631Z,99687.09
2024-01-16T02:33:44.694Z,99688.13
2024-01-16T02:34:48.621Z,99693.38
2024-01-16T02:35:57.271Z,99687.47
2024-01-16T02:37:01.185Z,99691.75
2024-01-16T02:38:08.313Z,99685.78
2024-01-16T02:39:14.827Z,99680.63
2024-01-16T02:40:23.576Z,99684.91
2024-01-16T02:41:27.627Z,99686.66
2024-01-16T02:42:37.473Z,99702.06
2024-01-16T02:43:43.716Z,99702.03
2024-01-16T02:44:53.412Z,99704.63
2024-01-16T02:45:57.393Z,99703.75
2024-01-16T02:47:08.538Z,99705.50
2024-01-16T02:48:13.093Z,99702.94
2024-01-16T02:49:19.751Z,99705.56
2024-01-16T02:50:26.144Z,99709.84
2024-01-16T02:51:32.716Z,99709.00
2024-01-16T02:52:39.225Z,99709.00
2024-01-16T02:53:45.816Z,99710.72
2024-01-16T02:54:54.776Z,99718.38
2024-01-16T02:56:03.825Z,99723.47
2024-01-16T02:57:07.732Z,99728.63
2024-01-16T02:58:16.791Z,99727.81
2024-01-16T02:59:23.243Z,99724.41
2024-01-16T03:00:29.774Z,99730.44
2024-01-16T03:01:33.657Z,99733.91
2024-01-16T03:02:37.595Z,99733.13
2024-01-16T03:03:44.152Z,99734.03
2024-01-16T03:04:48.032Z,99735.91
2024-01-16T03:05:54.631Z,99736.84
2024-01-16T03:06:58.656Z,99741.16
2024-01-16T03:08:08.940Z,99732.56
2024-01-16T03:09:13.581Z,99736.78
2024-01-16T03:10:22.755Z,99741.16
2024-01-16T03:11:32.624Z,99739.41
2024-01-16T03:12:42.203Z,99739.34
2024-01-16T03:13:46.430Z,99734.97
2024-01-16T03:14:54.552Z,99743.44
2024-01-16T03:15:58.362Z,99743.38
2024-01-16T03:17:08.362Z,99752.75
2024-01-16T03:18:13.338Z,99746.66
2024-01-16T03:19:20.092Z,99744.91
2024-01-16T03:20:24.545Z,99739.69
2024-01-16T03:21:33.632Z,99749.94
2024-01-16T03:22:37.551Z,99751.56
2024-01-16T03:23:46.716Z,99750.72
2024-01-16T03:24:50.679Z,99759.31
2024-01-16T03:26:02.000Z,99761.03
2024-01-16T03:27:06.299Z,99773.13
2024-01-16T03:28:12.759Z,99771.44
2024-01-16T03:29:16.692Z,99780.09
2024-01-16T03:30:23.444Z,99771.50
2024-01-16T03:31:27.467Z,99774.06
2024-01-16T03:32:34.161Z,99782.66
2024-01-16T03:33:43.974Z,99778.34
2024-01-16T03:34:50.894Z,99781.75
2024-01-16T03:35:57.419Z,99780.03
2024-01-16T03:37:03.550Z,99785.19
2024-01-16T03:38:10.257Z,99791.16
2024-01-16T03:39:14.186Z,99788.53
2024-01-16T03:40:21.399Z,99783.31
2024-01-16T03:41:29.225Z,99786.75
2024-01-16T03:42:35.728Z,99797.03
2024-01-16T03:43:40.706Z,99793.56
2024-01-16T03:44:44.848Z,99798.63
2024-01-16T03:45:51.411Z,99802.88
2024-01-16T03:46:57.677Z,99808.03
2024-01-16T03:48:04.578Z,99809.72
2024-01-16T03:49:08.647Z,99811.44
2024-01-16T03:50:12.832Z,99821.69
2024-01-16T03:51:22.097Z,99821.69
2024-01-16T03:52:29.219Z,99820.91
2024-01-16T03:53:33.157Z,99826.97
2024-01-16T03:54:39.621Z,99824.38
2024-01-16T03:55:43.541Z,99825.25
2024-01-16T03:56:54.314Z,99822.72
2024-01-16T03:57:58.210Z,99823.63
2024-01-16T03:59:05.126Z,99835.66
2024-01-16T04:00:13.858Z,99830.63
2024-01-16T04:01:20.455Z,99834.97
2024-01-16T04:02:24.514Z,99838.38
2024-01-16T04:03:31.048Z,99827.22
2024-01-16T04:04:35.119Z,99831.56
2024-01-16T04:05:41.839Z,99826.38
2024-01-16T04:06:45.794Z,99819.50
2024-01-16T04:07:52.524Z,99822.06
2024-01-16T04:08:56.488Z,99823.72
2024-01-16T04:10:04.232Z,99828.00
2024-01-16T04:11:13.731Z,99819.41
2024-01-16T04:12:25.914Z,99813.31
2024-01-16T04:13:29.853Z,99806.56
2024-01-16T04:14:37.409Z,99815.94
2024-01-16T04:15:41.558Z,99817.69
2024-01-16T04:16:50.605Z,99823.72
2024-01-16T04:17:57.753Z,99834.09
2024-01-16T04:19:06.621Z,99840.19
2024-01-16T04:20:13.261Z,99840.22
2024-01-16T04:21:20.828Z,99847.22
2024-01-16T04:22:27.282Z,99853.22
2024-01-16T04:23:33.866Z,99842.09
2024-01-16T04:24:37.763Z,99849.81
2024-01-16T04:25:44.645Z,99843.78
2024-01-16T04:26:53.739Z,99844.59
2024-01-16T04:28:07.803Z,99854.88
2024-01-16T04:29:15.415Z,99851.47
2024-01-16T04:30:21.496Z,99852.34
2024-01-16T04:31:25.436Z,99851.47
2024-01-16T04:32:34.458Z,99848.88
2024-01-16T04:33:41.957Z,99850.66
2024-01-16T04:34:51.049Z,99858.41
2024-01-16T04:35:54.959Z,99847.22
2024-01-16T04:37:01.413Z,99853.28
2024-01-16T04:38:05.236Z,99856.63
2024-01-16T04:39:12.461Z,99853.22
2024-01-16T04:40:19.024Z,99854.09
2024-01-16T04:41:25.543Z,99843.84
2024-01-16T04:42:31.714Z,99854.97
2024-01-16T04:43:43.042Z,99851.56
2024-01-16T04:44:46.914Z,99852.41
2024-01-16T04:45:53.523Z,99847.25
2024-01-16T04:46:59.560Z,99855.97
2024-01-16T04:48:07.123Z,99857.72
2024-01-16T04:49:11.088Z,99855.09
2024-01-16T04:50:17.613Z,99855.13
2024-01-16T04:51:26.459Z,99859.41
2024-01-16T04:52:30.410Z,99859.41
2024-01-16T04:53:41.861Z,99863.72
2024-01-16T04:54:48.280Z,99860.28
2024-01-16T04:55:54.739Z,99861.22
2024-01-16T04:56:58.609Z,99856.06
2024-01-16T04:58:05.267Z,99859.56
2024-01-16T04:59:13.519Z,99859.56
2024-01-16T05:00:21.594Z,99869.06
2024-01-16T05:01:28.446Z,99865.66
2024-01-16T05:02:34.928Z,99870.97
2024-01-16T05:03:41.336Z,99865.81
2024-01-16T05:04:53.169Z,99865.03
2024-01-16T05:05:58.245Z,99858.19
2024-01-16T05:07:04.896Z,99855.69
2024-01-16T05:08:11.847Z,99863.44
2024-01-16T05:09:18.305Z,99868.56
2024-01-16T05:10:22.129Z,99864.25
2024-01-16T05:11:28.638Z,99875.41
2024-01-16T05:12:32.538Z,99872.88
2024-01-16T05:13:39.095Z,99878.84
2024-01-16T05:14:47.943Z,99876.25
2024-01-16T05:15:54.463Z,99884.00
2024-01-16T05:16:58.375Z,99876.22
2024-01-16T05:18:11.518Z,99886.50
2024-01-16T05:19:16.504Z,99884.00
2024-01-16T05:20:23.412Z,99884.88
2024-01-16T05:21:29.724Z,99882.31
2024-01-16T05:22:40.423Z,99883.28
2024-01-16T05:23:48.465Z,99885.13
2024-01-16T05:24:55.149Z,99881.69
2024-01-16T05:25:59.193Z,99880.06
2024-01-16T05:27:05.875Z,99875.75
2024-01-16T05:28:09.827Z,99875.84
2024-01-16T05:29:18.964Z,99883.56
2024-01-16T05:30:25.511Z,99881.84
2024-01-16T05:31:34.676Z,99885.31
2024-01-16T05:32:42.860Z,99876.78
2024-01-16T05:33:49.604Z,99886.19
2024-01-16T05:34:53.572Z,99886.19
2024-01-16T05:36:03.530Z,99887.16
2024-01-16T05:37:09.518Z,99888.81
2024-01-16T05:38:19.170Z,99891.34
2024-01-16T05:39:25.752Z,99890.44
2024-01-16T05:40:29.590Z,99886.16
2024-01-16T05:41:37.678Z,99897.28
2024-01-16T05:42:44.115Z,99896.44
2024-01-16T05:43:50.628Z,99899.88
2024-01-16T05:44:55.099Z,99898.97
2024-01-16T05:46:04.498Z,99897.22
2024-01-16T05:47:08.406Z,99895.44
2024-01-16T05:48:15.383Z,99904.91
2024-01-16T05:49:21.680Z,99896.28
2024-01-16T05:50:31.522Z,99905.72
2024-01-16T05:51:36.508Z,99914.22
2024-01-16T05:52:45.530Z,99907.38
2024-01-16T05:53:53.417Z,99914.22
2024-01-16T05:55:03.758Z,99911.63
2024-01-16T05:56:08.346Z,99916.00
2024-01-16T05:57:16.962Z,99918.53
2024-01-16T05:58:28.410Z,99919.47
2024-01-16T05:59:34.887Z,99922.97
2024-01-16T06:00:40.886Z,99924.63
2024-01-16T06:01:50.440Z,99928.88
2024-01-16T06:02:54.383Z,99927.16
2024-01-16T06:04:01.220Z,99928.03
2024-01-16T06:05:08.405Z,99929.72
2024-01-16T06:06:15.085Z,99934.03
2024-01-16T06:07:19.867Z,99936.63
2024-01-16T06:08:28.740Z,99934.09
2024-01-16T06:09:33.643Z,99941.00
2024-01-16T06:10:43.082Z,99942.72
2024-01-16T06:11:47.093Z,99941.13
2024-01-16T06:12:53.920Z,99943.69
2024-01-16T06:13:57.745Z,99936.91
2024-01-16T06:15:04.330Z,99939.56
2024-01-16T06:16:09.391Z,99934.50
2024-01-16T06:17:29.718Z,99940.56
2024-01-16T06:18:33.793Z,99944.03
2024-01-16T06:19:42.815Z,99943.16
2024-01-16T06:20:48.007Z,99939.72
2024-01-16T06:21:57.239Z,99937.09
2024-01-16T06:23:01.165Z,99937.91
2024-01-16T06:24:07.843Z,99943.06
2024-01-16T06:25:11.867Z,99940.47
2024-01-16T06:26:20.679Z,99947.44
2024-01-16T06:27:27.443Z,99953.34
2024-01-16T06:28:33.905Z,99949.00
2024-01-16T06:29:56.651Z,99946.50
2024-01-16T06:31:06.282Z,99943.09
2024-01-16T06:32:15.035Z,99957.78
2024-01-16T06:33:21.698Z,99953.47
2024-01-16T06:34:28.733Z,99958.59
2024-01-16T06:35:51.038Z,99960.31
2024-01-16T06:36:56.738Z,99962.03
2024-01-16T06:38:06.314Z,99958.59
2024-01-16T06:39:10.116Z,99959.38
2024-01-16T06:40:17.184Z,99956.81
2024-01-16T06:41:24.271Z,99958.50
2024-01-16T06:42:32.959Z,99965.25
2024-01-16T06:43:37.078Z,99967.00
2024-01-16T06:44:43.605Z,99970.41
2024-01-16T06:45:49.609Z,99972.09
2024-01-16T06:46:56.301Z,99976.38
2024-01-16T06:48:03.081Z,99979.81
2024-01-16T06:49:07.989Z,99983.31
2024-01-16T06:50:14.499Z,99991.09
2024-01-16T06:51:19.620Z,99986.06
2024-01-16T06:52:28.536Z,99990.41
2024-01-16T06:53:37.164Z,99982.69
2024-01-16T06:54:43.751Z,99984.34
2024-01-16T06:55:47.642Z,99985.28
2024-01-16T06:56:51.593Z,99989.66
2024-01-16T06:58:00.625Z,99982.03
2024-01-16T06:59:05.966Z,99993.97
2024-01-16T07:00:16.304Z,99993.97
2024-01-16T07:01:20.409Z,99997.31
2024-01-16T07:02:29.644Z,100001.59
2024-01-16T07:03:36.329Z,100004.19
2024-01-16T07:04:45.483Z,100009.31
2024-01-16T07:05:52.438Z,100005.06
2024-01-16T07:07:01.103Z,100008.44
2024-01-16T07:08:05.525Z,100007.56
2024-01-16T07:09:13.447Z,100003.25
2024-01-16T07:10:22.634Z,100005.75
2024-01-16T07:11:29.175Z,100005.72
2024-01-16T07:12:35.782Z,100009.06
2024-01-16T07:13:42.367Z,100011.63
2024-01-16T07:14:46.313Z,100016.81
2024-01-16T07:15:55.309Z,100016.78
2024-01-16T07:17:00.357Z,100020.19
2024-01-16T07:18:08.019Z,100019.25
2024-01-16T07:19:14.850Z,100028.66
2024-01-16T07:20:21.882Z,100026.06
2024-01-16T07:21:26.047Z,100028.53
2024-01-16T07:22:32.732Z,100035.38
2024-01-16T07:23:40.818Z,100036.16
2024-01-16T07:24:47.328Z,100039.72
2024-01-16T07:25:54.306Z,100038.16
2024-01-16T07:27:00.824Z,100036.44
2024-01-16T07:28:05.081Z,100053.66
2024-01-16T07:29:11.759Z,100045.13
2024-01-16T07:30:18.246Z,100048.56
2024-01-16T07:31:27.217Z,100046.09
2024-01-16T07:32:32.698Z,100048.72
2024-01-16T07:33:41.690Z,100049.50
2024-01-16T07:34:51.350Z,100052.94
2024-01-16T07:35:58.111Z,100053.72
2024-01-16T07:37:05.262Z,100043.38
2024-01-16T07:38:11.745Z,100046.78
2024-01-16T07:39:15.641Z,100040.72
2024-01-16T07:40:22.299Z,100039.81
2024-01-16T07:41:28.774Z,100042.28
2024-01-16T07:42:35.771Z,100043.97
2024-01-16T07:43:39.807Z,100042.25
2024-01-16T07:44:49.034Z,100038.84
2024-01-16T07:45:55.321Z,100035.41
2024-01-16T07:47:06.230Z,100033.66
2024-01-16T07:48:10.284Z,100039.59
2024-01-16T07:49:19.095Z,100045.63
2024-01-16T07:50:29.354Z,100040.47
2024-01-16T07:51:39.033Z,100046.50
2024-01-16T07:52:43.041Z,100042.16
2024-01-16T07:53:50.384Z,100044.75
2024-01-16T07:54:56.680Z,100041.28
2024-01-16T07:56:03.279Z,100046.41
2024-01-16T07:57:07.722Z,100053.19
2024-01-16T07:58:16.684Z,100055.81
2024-01-16T07:59:20.691Z,100050.75
2024-01-16T08:00:28.945Z,100059.34
2024-01-16T08:01:33.766Z,100064.47
2024-01-16T08:02:43.424Z,100061.06
2024-01-16T08:03:47.601Z,100063.59
2024-01-16T08:04:54.218Z,100079.03
2024-01-16T08:06:02.397Z,100071.34
2024-01-16T08:07:09.678Z,100080.81
2024-01-16T08:08:13.698Z,100081.00
2024-01-16T08:09:18.700Z,100069.84
2024-01-16T08:10:27.891Z,100079.38
2024-01-16T08:11:32.965Z,100076.72
2024-01-16T08:12:42.056Z,100077.56
2024-01-16T08:13:46.098Z,100078.38
2024-01-16T08:14:53.487Z,100075.75
2024-01-16T08:15:57.491Z,100080.00
2024-01-16T08:17:08.143Z,100070.47
2024-01-16T08:18:17.160Z,100072.09
2024-01-16T08:19:23.872Z,100082.44
2024-01-16T08:20:27.984Z,100081.47
2024-01-16T08:21:37.497Z,100074.59
2024-01-16T08:22:43.619Z,100081.47
2024-01-16T08:23:52.481Z,100084.97
2024-01-16T08:24:56.937Z,100082.44
2024-01-16T08:26:03.511Z,100091.03
2024-01-16T08:27:10.605Z,100085.06
2024-01-16T08:28:18.238Z,100079.00
2024-01-16T08:29:23.442Z,100089.25
2024-01-16T08:30:32.212Z,100090.03
2024-01-16T08:31:38.968Z,100090.84
2024-01-16T08:32:45.618Z,100084.78
2024-01-16T08:33:52.285Z,100078.78
2024-01-16T08:35:03.138Z,100077.81
2024-01-16T08:36:07.752Z,100078.66
2024-01-16T08:37:19.454Z,100082.91
2024-01-16T08:38:23.580Z,100081.22
2024-01-16T08:39:34.332Z,100079.50
2024-01-16T08:40:38.320Z,100082.88
2024-01-16T08:41:47.225Z,100081.91
2024-01-16T08:43:06.845Z,100084.47
2024-01-16T08:44:16.736Z,100084.44
2024-01-16T08:45:23.488Z,100089.50
2024-01-16T08:46:32.718Z,100086.09
2024-01-16T08:47:38.966Z,100089.53
2024-01-16T08:48:48.303Z,100090.47
2024-01-16T08:49:54.677Z,100088.72
2024-01-16T08:51:05.191Z,100095.56
2024-01-16T08:52:11.642Z,100092.94
2024-01-16T08:53:24.541Z,100098.09
2024-01-16T08:54:28.801Z,100094.63
2024-01-16T08:55:37.728Z,100093.78
2024-01-16T08:56:44.116Z,100098.00
2024-01-16T08:57:53.321Z,100093.69
2024-01-16T08:59:00.234Z,100095.34
2024-01-16T09:00:12.249Z,100096.97
2024-01-16T09:01:16.482Z,100090.13
2024-01-16T09:02:23.101Z,100083.19
2024-01-16T09:03:27.056Z,100095.19
2024-01-16T09:04:34.284Z,100096.94
2024-01-16T09:05:40.635Z,100093.50
2024-01-16T09:06:47.731Z,100091.78
2024-01-16T09:07:52.160Z,100090.81
2024-01-16T09:09:01.523Z,100095.06
2024-01-16T09:10:07.149Z,100095.00
2024-01-16T09:11:13.765Z,100095.81
2024-01-16T09:12:17.847Z,100101.91
2024-01-16T09:13:26.947Z,100105.25
2024-01-16T09:14:30.857Z,100106.94
2024-01-16T09:15:41.000Z,100108.63
2024-01-16T09:16:45.215Z,100107.66
2024-01-16T09:17:49.296Z,100111.88
2024-01-16T09:18:56.180Z,100103.28
2024-01-16T09:20:00.353Z,100106.69
2024-01-16T09:21:07.596Z,100105.88
2024-01-16T09:22:11.510Z,100107.69
2024-01-16T09:23:18.240Z,100105.06
2024-01-16T09:24:27.381Z,100112.81
2024-01-16T09:25:47.780Z,100108.56
2024-01-16T09:26:53.941Z,100112.84
2024-01-16T09:28:00.582Z,100111.09
2024-01-16T09:29:10.141Z,100109.38
2024-01-16T09:30:50.173Z,100105.88
2024-01-16T09:32:05.842Z,100114.50
2024-01-16T09:33:14.867Z,100113.72
2024-01-16T09:34:19.389Z,100113.63
2024-01-16T09:35:28.369Z,100116.13
2024-01-16T09:38:35.269Z,100116.88
2024-01-16T09:39:44.353Z,100122.81
2024-01-16T09:40:53.865Z,100120.25
2024-01-16T09:42:02.419Z,100114.22
2024-01-16T09:43:12.072Z,100125.31
2024-01-16T09:44:16.212Z,100116.84
2024-01-16T09:45:25.816Z,100112.41
2024-01-16T09:46:32.668Z,100114.16
2024-01-16T09:47:41.438Z,100117.56
2024-01-16T09:48:47.478Z,100118.50
2024-01-16T09:49:54.378Z,100116.84
2024-01-16T09:50:58.582Z,100114.22
2024-01-16T09:52:07.359Z,100116.84
2024-01-16T09:53:12.164Z,100116.13
2024-01-16T09:54:18.820Z,100116.97
2024-01-16T09:55:28.550Z,100116.16
2024-01-16T09:56:37.672Z,100122.19
2024-01-16T09:57:47.638Z,100121.34
2024-01-16T09:59:07.531Z,100117.03
2024-01-16T10:01:09.228Z,100117.91
2024-01-16T10:02:16.164Z,100122.28
2024-01-16T10:03:38.483Z,100122.28
2024-01-16T10:04:43.953Z,100126.50
2024-01-16T10:05:52.762Z,100122.19
2024-01-16T10:07:03.720Z,100126.38
2024-01-16T10:08:10.303Z,100116.00
2024-01-16T10:09:17.609Z,100121.13
2024-01-16T10:10:30.998Z,100128.75
2024-01-16T10:11:46.667Z,100130.41
2024-01-16T10:14:12.473Z,100125.19
2024-01-16T10:15:29.103Z,100125.09
2024-01-16T10:17:04.283Z,100134.53
2024-01-16T10:19:09.487Z,100130.09
2024-01-16T10:23:14.899Z,100133.31
2024-01-16T10:24:21.089Z,100134.97
2024-01-16T10:25:25.331Z,100134.03
2024-01-16T10:26:31.885Z,100129.75
2024-01-16T10:27:43.025Z,100133.97
2024-01-16T10:28:51.931Z,100132.19
2024-01-16T10:30:00.400Z,100135.53
2024-01-16T10:31:06.227Z,100134.69
2024-01-16T10:32:13.522Z,100134.75
2024-01-16T10:33:18.928Z,100137.31
2024-01-16T10:34:28.140Z,100135.53
2024-01-16T10:35:32.431Z,100131.25
2024-01-16T10:36:39.800Z,100132.88
2024-01-16T10:37:48.131Z,100132.06
2024-01-16T10:39:14.703Z,100129.53
2024-01-16T10:40:26.283Z,100133.88
2024-01-16T10:47:17.639Z,100141.41
2024-01-16T10:49:07.833Z,100139.69
2024-01-16T10:50:14.275Z,100141.44
2024-01-16T10:51:31.201Z,100143.16
2024-01-16T10:52:36.937Z,100138.94
2024-01-16T10:53:48.227Z,100143.16
2024-01-16T10:54:54.165Z,100135.53
2024-01-16T10:56:05.555Z,100137.97
2024-01-16T10:57:10.800Z,100137.94
2024-01-16T10:58:18.157Z,100133.63
2024-01-16T10:59:35.683Z,100126.75
2024-01-16T11:00:46.058Z,100126.75
2024-01-16T11:01:56.314Z,100122.53
2024-01-16T11:03:11.714Z,100125.03
2024-01-16T11:04:22.605Z,100117.22
2024-01-16T11:05:34.693Z,100124.88
2024-01-16T11:06:43.828Z,100124.06
2024-01-16T11:07:53.269Z,100118.91
2024-01-16T11:08:59.757Z,100121.41
2024-01-16T11:10:07.158Z,100118.84
2024-01-16T11:11:15.504Z,100121.38
2024-01-16T11:12:23.515Z,100114.47
2024-01-16T11:13:28.104Z,100122.19
2024-01-16T11:14:36.886Z,100119.63
2024-01-16T11:15:43.469Z,100126.59
2024-01-16T11:16:53.823Z,100121.41
2024-01-16T11:17:58.264Z,100117.97
2024-01-16T11:19:25.593Z,100119.69
2024-01-16T11:21:57.087Z,100117.88
2024-01-16T11:23:03.070Z,100112.66
2024-01-16T11:24:12.684Z,100117.03
2024-01-16T11:25:20.777Z,100109.28
2024-01-16T11:26:29.631Z,100116.97
2024-01-16T11:27:38.003Z,100113.63
2024-01-16T11:28:41.892Z,100116.16
2024-01-16T11:29:54.523Z,100115.22
2024-01-16T11:30:58.642Z,100121.31
2024-01-16T11:32:18.351Z,100118.72
2024-01-16T11:33:44.525Z,100116.06
2024-01-16T11:35:01.044Z,100118.59
2024-01-16T11:37:04.151Z,100113.41
2024-01-16T11:38:16.053Z,100113.41
2024-01-16T11:39:26.964Z,100115.16
2024-01-16T11:40:34.451Z,100107.50
2024-01-16T11:41:54.977Z,100109.19
2024-01-16T11:42:58.810Z,100105.78
2024-01-16T11:44:03.803Z,100108.53
2024-01-16T11:45:12.290Z,100107.63
2024-01-16T11:46:18.961Z,100111.22
2024-01-16T11:47:30.827Z,100111.25
2024-01-16T11:48:39.988Z,100107.75
2024-01-16T11:49:44.283Z,100112.31
2024-01-16T11:51:44.282Z,100113.94
2024-01-16T11:52:49.284Z,100113.25
2024-01-16T11:53:58.538Z,100110.66
2024-01-16T11:55:27.225Z,100106.22
2024-01-16T11:57:07.195Z,100106.16
2024-01-16T11:58:46.413Z,100103.53
2024-01-16T12:00:14.223Z,100104.28
2024-01-16T12:01:21.209Z,100099.06
2024-01-16T12:02:42.625Z,100104.13
2024-01-16T12:04:03.208Z,100096.41
2024-01-16T12:05:09.977Z,100098.16
2024-01-16T12:06:18.388Z,100098.97
2024-01-16T12:07:28.033Z,100100.69
2024-01-16T12:08:32.123Z,100102.47
2024-01-16T12:09:35.685Z,100099.06
2024-01-16T12:10:51.287Z,100095.69
2024-01-16T12:11:59.220Z,100104.47
2024-01-16T12:13:06.099Z,100098.47
2024-01-16T12:14:10.175Z,100095.00
2024-01-16T12:15:21.261Z,100094.25
2024-01-16T12:16:25.248Z,100090.00
2024-01-16T12:17:31.969Z,100091.84
2024-01-16T12:18:42.585Z,100097.88
2024-01-16T12:19:54.821Z,100094.41
2024-01-16T12:21:00.130Z,100084.09
2024-01-16T12:22:06.991Z,100085.69
2024-01-16T12:23:17.657Z,100085.63
2024-01-16T12:24:24.315Z,100079.59
2024-01-16T12:26:00.401Z,100079.47
2024-01-16T12:27:02.471Z,100081.19
2024-01-16T12:28:11.701Z,100082.78
2024-01-16T12:29:22.334Z,100069.97
2024-01-16T12:30:31.930Z,100082.06
2024-01-16T12:31:38.917Z,100081.28
2024-01-16T12:32:43.165Z,100071.84
2024-01-16T12:33:57.917Z,100068.41
2024-01-16T12:35:06.508Z,100068.34
2024-01-16T12:36:15.135Z,100064.06
2024-01-16T12:37:21.355Z,100068.34
2024-01-16T12:38:30.485Z,100067.47
2024-01-16T12:39:34.768Z,100054.88
2024-01-16T12:40:44.718Z,100060.88
2024-01-16T12:41:48.831Z,100060.06
2024-01-16T12:42:58.893Z,100060.06
2024-01-16T12:44:10.891Z,100057.59
2024-01-16T12:45:22.657Z,100060.97
2024-01-16T12:46:34.012Z,100061.84
2024-01-16T12:47:40.968Z,100067.09
2024-01-16T12:48:56.481Z,100060.97
2024-01-16T12:50:11.545Z,100053.19
2024-01-16T12:51:23.506Z,100059.94
2024-01-16T12:52:33.680Z,100055.59
2024-01-16T12:53:41.423Z,100053.03
2024-01-16T12:54:53.793Z,100059.94
2024-01-16T12:56:05.944Z,100061.75
2024-01-16T12:57:15.246Z,100048.81
2024-01-16T12:58:25.661Z,100054.78
2024-01-16T12:59:33.698Z,100059.94
2024-01-16T13:00:40.831Z,100057.47
2024-01-16T13:01:49.400Z,100065.28
2024-01-16T13:02:54.418Z,100061.75
2024-01-16T13:04:08.445Z,100064.22
2024-01-16T13:05:19.079Z,100056.47
2024-01-16T13:06:28.188Z,100061.53
2024-01-16T13:07:34.861Z,100059.84
2024-01-16T13:08:46.652Z,100064.13
2024-01-16T13:09:50.574Z,100056.53
2024-01-16T13:11:13.527Z,100048.25
2024-01-16T13:12:22.154Z,100055.84
2024-01-16T13:13:29.471Z,100052.34
2024-01-16T13:14:33.423Z,100051.59
2024-01-16T13:15:40.004Z,100050.69
2024-01-16T13:16:43.891Z,100049.78
2024-01-16T13:17:52.417Z,100045.53
2024-01-16T13:19:02.702Z,100048.09
2024-01-16T13:20:16.176Z,100040.47
2024-01-16T13:21:20.355Z,100041.22
2024-01-16T13:22:36.182Z,100045.53
2024-01-16T13:23:50.208Z,100047.19